Time;durP1;ratioP1;P1;durP2;ratioP2;P2;SDS_P1;SDS_P2;PMS_P1;PMS_P2;Temp;Humidity;BMP_temperature;BMP_pressure;BME280_temperature;BME280_humidity;BME280_pressure;Samples;Min_cycle;Max_cycle;Signal;HPM_P1;HPM_P2
2024/02/14 00:01:36;;;;;;;0.30;0.20;;;8.80;99.90;;;;;;5105431;28;20176;-82
2024/02/14 00:04:03;;;;;;;5.63;2.95;;;8.80;99.90;;;;;;5105299;28;20187;-73
2024/02/14 00:06:29;;;;;;;0.30;0.20;;;8.80;99.90;;;;;;5105526;28;20182;-73
2024/02/14 00:08:54;;;;;;;0.30;0.20;;;8.80;99.90;;;;;;5103665;28;20196;-73
2024/02/14 00:11:20;;;;;;;0.30;0.27;;;8.80;99.90;;;;;;5102507;28;20263;-83
2024/02/14 00:13:46;;;;;;;0.30;0.20;;;8.80;99.90;;;;;;5105236;28;20219;-83
2024/02/14 00:16:11;;;;;;;0.30;0.20;;;8.90;99.90;;;;;;5105289;28;20172;-82
2024/02/14 00:18:37;;;;;;;0.30;0.30;;;8.90;99.90;;;;;;5104110;28;20229;-73
2024/02/14 00:21:03;;;;;;;0.30;0.20;;;8.90;99.90;;;;;;5104666;28;20186;-83
2024/02/14 00:23:28;;;;;;;0.30;0.20;;;8.90;99.90;;;;;;5105588;28;20215;-73
2024/02/14 00:25:54;;;;;;;0.30;0.20;;;8.90;99.90;;;;;;5104117;28;20838;-73
2024/02/14 00:28:20;;;;;;;0.30;0.20;;;8.90;99.90;;;;;;5104928;28;20266;-83
2024/02/14 00:30:45;;;;;;;0.30;0.20;;;8.90;99.90;;;;;;5103804;28;20244;-74
2024/02/14 00:33:11;;;;;;;0.30;0.20;;;9.00;99.90;;;;;;5103329;28;20680;-83
2024/02/14 00:35:37;;;;;;;0.30;0.20;;;9.00;99.90;;;;;;5105442;28;20637;-74
2024/02/14 00:38:02;;;;;;;5.23;5.03;;;9.00;99.90;;;;;;5105991;28;20217;-73
2024/02/14 00:40:28;;;;;;;0.30;0.20;;;9.00;99.90;;;;;;5108094;28;20176;-73
2024/02/14 00:42:54;;;;;;;0.30;0.20;;;9.00;99.90;;;;;;5108843;28;20435;-73
2024/02/14 00:45:19;;;;;;;1.70;1.60;;;9.00;99.90;;;;;;5108930;28;20199;-82
2024/02/14 00:47:45;;;;;;;0.30;0.20;;;9.00;99.90;;;;;;5107731;28;20203;-73
2024/02/14 00:50:13;;;;;;;7.90;7.30;;;9.00;99.90;;;;;;5107765;28;20213;-82
2024/02/14 00:52:39;;;;;;;0.30;0.20;;;9.00;99.90;;;;;;5108837;28;20225;-73
2024/02/14 00:55:05;;;;;;;0.30;0.20;;;8.90;99.90;;;;;;5109068;28;20573;-74
2024/02/14 00:57:31;;;;;;;0.30;0.20;;;8.90;99.90;;;;;;5108840;28;20172;-80
2024/02/14 00:59:57;;;;;;;0.30;0.20;;;8.90;99.90;;;;;;5108657;28;20408;-83
2024/02/14 01:02:23;;;;;;;0.30;0.20;;;8.90;99.90;;;;;;5108526;28;20221;-73
2024/02/14 01:04:49;;;;;;;0.35;0.35;;;8.90;99.90;;;;;;5108691;27;20187;-83
2024/02/14 01:07:14;;;;;;;0.30;0.20;;;8.90;99.90;;;;;;5108126;28;20340;-73
2024/02/14 01:09:40;;;;;;;0.30;0.20;;;8.90;99.90;;;;;;5107504;28;20264;-83
2024/02/14 01:12:06;;;;;;;0.30;0.20;;;8.90;99.90;;;;;;5107325;28;20228;-83
2024/02/14 01:14:32;;;;;;;0.30;0.20;;;9.00;99.90;;;;;;5108315;27;20211;-83
2024/02/14 01:16:58;;;;;;;0.30;0.20;;;9.00;99.90;;;;;;5108570;28;20431;-82
2024/02/14 01:19:25;;;;;;;0.30;0.20;;;9.00;99.90;;;;;;5107307;28;20561;-83
2024/02/14 01:21:51;;;;;;;0.30;0.30;;;9.00;99.90;;;;;;5108571;28;20186;-73
2024/02/14 01:24:17;;;;;;;0.30;0.20;;;9.00;99.90;;;;;;5108688;28;20656;-73
2024/02/14 01:26:42;;;;;;;0.30;0.20;;;9.00;99.90;;;;;;5108578;27;20411;-82
2024/02/14 01:29:09;;;;;;;0.30;0.20;;;9.00;99.90;;;;;;5106775;28;20196;-73
2024/02/14 01:31:35;;;;;;;0.30;0.20;;;9.00;99.90;;;;;;5106832;28;20263;-83
2024/02/14 01:34:03;;;;;;;0.30;0.20;;;9.00;99.90;;;;;;5108946;28;20215;-83
2024/02/14 01:36:29;;;;;;;0.30;0.20;;;9.00;99.90;;;;;;5108054;28;20218;-73
2024/02/14 01:38:55;;;;;;;0.30;0.20;;;9.00;99.90;;;;;;5108240;28;20192;-73
2024/02/14 01:41:23;;;;;;;0.30;0.20;;;9.00;99.90;;;;;;5107825;28;20948;-75
2024/02/14 01:43:50;;;;;;;0.30;0.20;;;9.00;99.90;;;;;;5107956;28;20391;-73
2024/02/14 01:46:16;;;;;;;0.30;0.20;;;9.00;99.90;;;;;;5106483;28;20183;-73
2024/02/14 01:48:42;;;;;;;0.30;0.20;;;9.00;99.90;;;;;;5107997;28;20214;-74
2024/02/14 01:51:11;;;;;;;0.30;0.20;;;9.00;99.90;;;;;;5107002;28;20259;-72
2024/02/14 01:53:38;;;;;;;0.30;0.20;;;8.90;99.90;;;;;;5107717;28;20222;-73
2024/02/14 01:56:04;;;;;;;0.30;0.20;;;8.90;99.90;;;;;;5107949;28;20657;-73
2024/02/14 01:58:30;;;;;;;0.30;0.20;;;8.90;99.90;;;;;;5107755;28;20188;-83
2024/02/14 02:00:58;;;;;;;0.30;0.20;;;8.90;99.90;;;;;;5106536;28;20636;-82
2024/02/14 02:03:25;;;;;;;0.52;0.52;;;8.90;99.90;;;;;;5107771;28;20199;-73
2024/02/14 02:05:52;;;;;;;0.30;0.20;;;8.80;99.90;;;;;;5107327;28;20271;-83
2024/02/14 02:08:18;;;;;;;0.30;0.20;;;8.80;99.90;;;;;;5107399;28;20192;-83
2024/02/14 02:10:43;;;;;;;0.30;0.20;;;8.70;99.90;;;;;;5106403;27;20223;-83
2024/02/14 02:13:09;;;;;;;0.30;0.20;;;8.70;99.90;;;;;;5107219;28;20442;-73
2024/02/14 02:15:35;;;;;;;0.30;0.20;;;8.60;99.90;;;;;;5107546;28;20179;-74
2024/02/14 02:18:05;;;;;;;0.30;0.20;;;8.60;99.90;;;;;;5106159;28;20286;-81
2024/02/14 02:20:32;;;;;;;0.30;0.30;;;8.50;99.90;;;;;;5106093;28;20336;-73
2024/02/14 02:22:58;;;;;;;0.30;0.20;;;8.50;99.90;;;;;;5105942;28;20200;-83
2024/02/14 02:25:26;;;;;;;0.30;0.20;;;8.40;99.90;;;;;;5107442;28;20168;-74
2024/02/14 02:27:56;;;;;;;0.30;0.20;;;8.40;99.90;;;;;;5107145;28;20435;-83
2024/02/14 02:30:22;;;;;;;0.30;0.30;;;8.40;99.90;;;;;;5107493;28;20313;-83
2024/02/14 02:32:50;;;;;;;0.30;0.30;;;8.30;99.90;;;;;;5106681;28;20669;-73
2024/02/14 02:35:16;;;;;;;0.30;0.20;;;8.30;99.90;;;;;;5107013;28;20168;-83
2024/02/14 02:37:42;;;;;;;0.30;0.20;;;8.20;99.90;;;;;;5107007;28;20200;-83
2024/02/14 02:40:10;;;;;;;0.30;0.20;;;8.20;99.90;;;;;;5106926;28;20168;-73
2024/02/14 02:42:36;;;;;;;0.30;0.20;;;8.20;99.90;;;;;;5105162;28;20570;-77
2024/02/14 02:45:05;;;;;;;0.30;0.20;;;8.10;99.90;;;;;;5107242;28;20176;-80
2024/02/14 02:47:31;;;;;;;0.30;0.20;;;8.10;99.90;;;;;;5105422;28;20551;-83
2024/02/14 02:49:59;;;;;;;0.30;0.22;;;8.00;99.90;;;;;;5106516;28;20210;-83
2024/02/14 02:52:25;;;;;;;0.30;0.20;;;8.00;99.90;;;;;;5105071;28;20228;-83
2024/02/14 02:54:52;;;;;;;0.30;0.20;;;7.90;99.90;;;;;;5106617;28;20208;-73
2024/02/14 02:57:18;;;;;;;0.30;0.20;;;7.90;99.90;;;;;;5106854;28;20191;-73
2024/02/14 02:59:45;;;;;;;0.30;0.20;;;7.90;99.90;;;;;;5105435;28;20184;-83
2024/02/14 03:02:11;;;;;;;0.30;0.20;;;7.80;99.90;;;;;;5104257;28;20180;-73
2024/02/14 03:04:38;;;;;;;0.30;0.25;;;7.80;99.90;;;;;;5105856;28;20200;-73
2024/02/14 03:07:06;;;;;;;0.30;0.20;;;7.80;99.90;;;;;;5104728;28;20289;-73
2024/02/14 03:09:32;;;;;;;0.30;0.20;;;7.70;99.90;;;;;;5104849;28;20540;-73
2024/02/14 03:11:58;;;;;;;0.30;0.20;;;7.70;99.90;;;;;;5105183;28;20292;-73
2024/02/14 03:14:24;;;;;;;0.30;0.30;;;7.60;99.90;;;;;;5104734;28;20219;-73
2024/02/14 03:16:50;;;;;;;0.30;0.20;;;7.60;99.90;;;;;;5104894;28;20182;-74
2024/02/14 03:19:16;;;;;;;0.30;0.20;;;7.50;99.90;;;;;;5105791;28;20235;-83
2024/02/14 03:21:43;;;;;;;0.30;0.20;;;7.40;99.90;;;;;;5104531;28;20180;-82
2024/02/14 03:24:10;;;;;;;0.30;0.20;;;7.40;99.90;;;;;;5106101;28;20279;-73
2024/02/14 03:26:36;;;;;;;0.30;0.20;;;7.40;99.90;;;;;;5104413;28;20232;-73
2024/02/14 03:29:06;;;;;;;0.77;0.77;;;7.30;99.90;;;;;;5104483;28;20262;-73
2024/02/14 03:31:32;;;;;;;0.30;0.20;;;7.30;99.90;;;;;;5105791;28;20234;-72
2024/02/14 03:33:58;;;;;;;0.30;0.20;;;7.20;99.90;;;;;;5104510;28;20688;-72
2024/02/14 03:36:26;;;;;;;0.30;0.20;;;7.20;99.90;;;;;;5105879;28;20176;-73
2024/02/14 03:38:52;;;;;;;0.30;0.20;;;7.10;99.90;;;;;;5106051;28;20773;-83
2024/02/14 03:41:18;;;;;;;0.30;0.20;;;7.10;99.90;;;;;;5104201;28;20179;-82
2024/02/14 03:43:43;;;;;;;0.30;0.20;;;7.00;99.90;;;;;;5104078;28;20291;-73
2024/02/14 03:46:09;;;;;;;0.30;0.30;;;7.00;99.90;;;;;;5104275;28;20658;-74
2024/02/14 03:48:35;;;;;;;0.30;0.20;;;7.00;99.90;;;;;;5104334;28;20238;-86
2024/02/14 03:51:01;;;;;;;0.30;0.20;;;6.90;99.90;;;;;;5105633;28;20241;-84
2024/02/14 03:53:26;;;;;;;0.30;0.20;;;6.80;99.90;;;;;;5104218;28;20446;-74
2024/02/14 03:55:53;;;;;;;0.30;0.20;;;6.80;99.90;;;;;;5105910;28;20790;-76
2024/02/14 03:58:22;;;;;;;0.30;0.20;;;6.70;99.90;;;;;;5105768;28;20214;-83
2024/02/14 04:00:51;;;;;;;0.30;0.20;;;6.70;99.90;;;;;;5105874;28;20172;-72
2024/02/14 04:03:17;;;;;;;0.30;0.20;;;6.70;99.90;;;;;;5105407;28;20552;-73
2024/02/14 04:05:43;;;;;;;0.30;0.20;;;6.60;99.90;;;;;;5104050;28;20277;-83
2024/02/14 04:08:09;;;;;;;0.30;0.20;;;6.50;99.90;;;;;;5104839;28;20259;-83
2024/02/14 04:10:36;;;;;;;0.30;0.20;;;6.50;99.90;;;;;;5104014;28;20254;-83
2024/02/14 04:13:05;;;;;;;0.30;0.20;;;6.40;99.90;;;;;;5104440;28;20207;-83
2024/02/14 04:15:32;;;;;;;0.30;0.20;;;6.30;99.90;;;;;;5103112;28;20176;-83
2024/02/14 04:18:00;;;;;;;0.30;0.30;;;6.20;99.90;;;;;;5105160;28;20195;-72
2024/02/14 04:20:26;;;;;;;2.92;2.83;;;6.20;99.90;;;;;;5105781;28;20613;-72
2024/02/14 04:22:51;;;;;;;0.30;0.20;;;6.20;99.90;;;;;;5105078;28;20205;-72
2024/02/14 04:25:18;;;;;;;0.30;0.20;;;6.10;99.90;;;;;;5105267;28;20403;-83
2024/02/14 04:27:44;;;;;;;0.30;0.30;;;6.10;99.90;;;;;;5103679;28;20207;-72
2024/02/14 04:30:10;;;;;;;0.30;0.20;;;6.00;99.90;;;;;;5105341;28;20176;-73
2024/02/14 04:32:36;;;;;;;0.30;0.20;;;5.90;99.90;;;;;;5103333;28;20438;-75
2024/02/14 04:35:01;;;;;;;0.30;0.20;;;5.90;99.90;;;;;;5105108;28;20262;-75
2024/02/14 04:37:27;;;;;;;0.30;0.20;;;5.90;99.90;;;;;;5105037;28;20202;-83
2024/02/14 04:39:53;;;;;;;0.30;0.30;;;6.00;99.90;;;;;;5105189;28;20384;-72
2024/02/14 04:42:18;;;;;;;0.30;0.30;;;6.00;99.90;;;;;;5103769;28;20186;-83
2024/02/14 04:44:44;;;;;;;0.30;0.20;;;6.10;99.90;;;;;;5105572;28;20176;-80
2024/02/14 04:47:10;;;;;;;0.30;0.30;;;6.10;99.90;;;;;;5104964;28;20172;-84
2024/02/14 04:49:36;;;;;;;0.32;0.30;;;6.10;99.90;;;;;;5104039;28;20199;-73
2024/02/14 04:52:02;;;;;;;0.30;0.30;;;6.20;99.90;;;;;;5103465;28;20657;-83
2024/02/14 04:54:28;;;;;;;0.30;0.30;;;6.20;99.90;;;;;;5103441;28;20211;-74
2024/02/14 04:56:54;;;;;;;0.30;0.20;;;6.30;99.90;;;;;;5104728;28;20404;-74
2024/02/14 04:59:19;;;;;;;0.30;0.20;;;6.40;99.90;;;;;;5103723;28;20278;-74
2024/02/14 05:01:46;;;;;;;0.30;0.20;;;6.40;99.90;;;;;;5103160;28;20544;-83
2024/02/14 05:04:12;;;;;;;0.30;0.30;;;6.50;99.90;;;;;;5100945;28;20196;-76
2024/02/14 05:06:38;;;;;;;0.30;0.20;;;6.60;99.90;;;;;;5103177;28;20801;-86
2024/02/14 05:09:05;;;;;;;0.30;0.20;;;6.70;99.90;;;;;;5103625;28;20337;-85
2024/02/14 05:11:31;;;;;;;0.30;0.20;;;6.70;99.90;;;;;;5105075;28;20220;-75
2024/02/14 05:13:56;;;;;;;0.30;0.30;;;6.70;99.90;;;;;;5104021;28;20215;-74
2024/02/14 05:16:23;;;;;;;0.30;0.20;;;6.70;99.90;;;;;;5102258;28;20602;-77
2024/02/14 05:18:48;;;;;;;0.30;0.20;;;6.70;99.90;;;;;;5104617;28;20223;-83
2024/02/14 05:21:14;;;;;;;0.30;0.20;;;6.70;99.90;;;;;;5103801;28;20207;-76
2024/02/14 05:23:40;;;;;;;0.30;0.20;;;6.70;99.90;;;;;;5102003;28;20227;-74
2024/02/14 05:26:06;;;;;;;0.30;0.20;;;6.70;99.90;;;;;;5106701;28;20983;-83
2024/02/14 05:28:32;;;;;;;0.30;0.20;;;6.70;99.90;;;;;;5091896;28;20203;-83
2024/02/14 05:31:00;;;;;;;0.30;0.20;;;6.70;99.90;;;;;;5105448;28;20188;-76
2024/02/14 05:33:26;;;;;;;0.30;0.20;;;6.70;99.90;;;;;;5095456;28;20499;-74
2024/02/14 05:35:52;;;;;;;0.30;0.30;;;6.70;99.90;;;;;;5098526;28;20229;-82
2024/02/14 05:38:19;;;;;;;0.30;0.20;;;6.70;99.90;;;;;;5103016;28;20785;-83
2024/02/14 05:40:46;;;;;;;0.30;0.20;;;6.70;99.90;;;;;;5100151;28;20290;-75
2024/02/14 05:43:12;;;;;;;0.30;0.20;;;6.70;99.90;;;;;;5095877;28;20238;-75
2024/02/14 05:45:38;;;;;;;0.30;0.20;;;6.70;99.90;;;;;;5104203;28;20215;-75
2024/02/14 05:48:04;;;;;;;0.30;0.20;;;6.70;99.90;;;;;;5113380;27;20886;-83
2024/02/14 05:50:30;;;;;;;0.30;0.20;;;6.70;99.90;;;;;;5101449;28;20253;-82
2024/02/14 05:52:57;;;;;;;0.30;0.20;;;6.80;99.90;;;;;;5100895;28;20226;-83
2024/02/14 05:55:24;;;;;;;0.30;0.20;;;6.70;99.90;;;;;;5102528;28;21034;-83
2024/02/14 05:57:52;;;;;;;0.30;0.20;;;6.70;99.90;;;;;;5100566;28;20252;-77
2024/02/14 06:00:18;;;;;;;0.30;0.20;;;6.70;99.90;;;;;;5105378;28;20183;-80
2024/02/14 06:02:44;;;;;;;0.30;0.30;;;6.70;99.90;;;;;;5112767;27;20286;-79
2024/02/14 06:05:10;;;;;;;0.30;0.20;;;6.70;99.90;;;;;;5105486;28;20576;-77
2024/02/14 06:07:40;;;;;;;0.30;0.30;;;6.70;99.90;;;;;;5104053;28;20200;-80
2024/02/14 06:10:06;;;;;;;0.30;0.20;;;6.60;99.90;;;;;;5101847;28;20494;-83
2024/02/14 06:12:33;;;;;;;0.30;0.20;;;6.50;99.90;;;;;;5103051;28;20287;-78
2024/02/14 06:14:58;;;;;;;0.30;0.25;;;6.40;99.90;;;;;;5105801;28;20231;-78
2024/02/14 06:17:26;;;;;;;0.30;0.20;;;6.30;99.90;;;;;;5104016;28;20214;-85
2024/02/14 06:19:52;;;;;;;0.30;0.30;;;6.30;99.90;;;;;;5102170;28;20526;-80
2024/02/14 06:22:18;;;;;;;0.30;0.20;;;6.20;99.90;;;;;;5111674;27;20180;-79
2024/02/14 06:24:43;;;;;;;0.30;0.20;;;6.20;99.90;;;;;;5101758;28;20267;-79
2024/02/14 06:27:09;;;;;;;0.30;0.30;;;6.30;99.90;;;;;;5100240;28;20605;-79
2024/02/14 06:29:35;;;;;;;0.37;0.27;;;6.40;99.90;;;;;;5116737;27;20208;-79
2024/02/14 06:32:01;;;;;;;0.30;0.20;;;6.50;99.90;;;;;;5101532;28;20399;-79
2024/02/14 06:34:28;;;;;;;0.30;0.20;;;6.70;99.90;;;;;;5109275;27;20464;-79
2024/02/14 06:36:54;;;;;;;0.30;0.20;;;6.90;99.90;;;;;;5102301;28;20416;-79
2024/02/14 06:39:20;;;;;;;0.30;0.30;;;6.70;99.90;;;;;;5099194;28;20919;-79
2024/02/14 06:41:47;;;;;;;0.30;0.20;;;6.50;99.90;;;;;;5099727;27;20310;-79
2024/02/14 06:44:13;;;;;;;0.30;0.20;;;6.30;99.90;;;;;;5109573;27;20199;-79
2024/02/14 06:46:38;;;;;;;0.30;0.20;;;6.20;99.90;;;;;;5097666;28;20672;-79
2024/02/14 06:49:04;;;;;;;0.30;0.20;;;6.10;99.90;;;;;;5100902;28;20238;-79
2024/02/14 06:51:30;;;;;;;0.30;0.20;;;6.00;99.90;;;;;;5102524;28;20191;-79
2024/02/14 06:53:57;;;;;;;0.30;0.30;;;6.00;99.90;;;;;;5099149;28;20475;-79
2024/02/14 06:56:23;;;;;;;0.30;0.30;;;6.00;99.90;;;;;;5096340;28;20660;-80
2024/02/14 06:58:54;;;;;;;0.30;0.20;;;5.90;99.90;;;;;;5095715;28;20921;-78
2024/02/14 07:01:23;;;;;;;0.30;0.20;;;5.90;99.90;;;;;;5096829;27;20180;-79
2024/02/14 07:03:49;;;;;;;0.30;0.20;;;5.90;99.90;;;;;;5098071;28;20350;-79
2024/02/14 07:06:15;;;;;;;0.30;0.20;;;6.00;99.90;;;;;;5095409;28;20176;-79
2024/02/14 07:08:41;;;;;;;0.30;0.20;;;6.00;99.90;;;;;;5095606;28;20216;-77
2024/02/14 07:11:07;;;;;;;0.30;0.20;;;6.10;99.90;;;;;;5096639;28;20475;-77
2024/02/14 07:13:33;;;;;;;0.30;0.20;;;6.10;99.90;;;;;;5112355;27;20596;-78
2024/02/14 07:15:58;;;;;;;0.30;0.20;;;6.20;99.90;;;;;;5101001;28;20577;-80
2024/02/14 07:18:24;;;;;;;0.30;0.20;;;6.20;99.90;;;;;;5099041;28;20593;-79
2024/02/14 07:20:50;;;;;;;0.30;0.23;;;6.30;99.90;;;;;;5106728;27;20554;-79
2024/02/14 07:23:17;;;;;;;0.50;0.43;;;6.40;99.90;;;;;;5098162;28;20559;-79
2024/02/14 07:25:43;;;;;;;0.30;0.20;;;6.50;99.90;;;;;;5090915;28;20188;-78
2024/02/14 07:28:09;;;;;;;0.45;0.45;;;6.60;99.90;;;;;;5093850;28;20660;-79
2024/02/14 07:30:35;;;;;;;0.30;0.20;;;6.70;99.90;;;;;;5097394;28;20417;-79
2024/02/14 07:33:01;;;;;;;0.30;0.25;;;6.90;99.90;;;;;;5089434;28;20261;-78
2024/02/14 07:35:26;;;;;;;0.30;0.20;;;7.00;99.90;;;;;;5096160;28;20187;-80
2024/02/14 07:37:53;;;;;;;0.30;0.20;;;7.40;99.90;;;;;;5096506;28;20496;-79
2024/02/14 07:40:20;;;;;;;0.30;0.20;;;8.00;99.90;;;;;;5094296;28;20492;-79
2024/02/14 07:42:46;;;;;;;0.30;0.20;;;8.50;99.90;;;;;;5094936;28;20191;-79
2024/02/14 07:45:12;;;;;;;41.90;19.53;;;8.90;99.90;;;;;;5082871;28;20520;-79
2024/02/14 07:47:39;;;;;;;0.30;0.20;;;9.20;99.90;;;;;;5084094;28;20294;-79
2024/02/14 07:50:04;;;;;;;0.30;0.20;;;9.30;99.90;;;;;;5087074;27;20441;-78
2024/02/14 07:52:31;;;;;;;0.30;0.20;;;9.40;99.90;;;;;;5094887;28;20471;-79
2024/02/14 07:54:57;;;;;;;0.30;0.20;;;9.50;99.90;;;;;;5091900;28;20555;-80
2024/02/14 07:57:23;;;;;;;0.30;0.30;;;9.60;99.90;;;;;;5093701;28;20752;-79
2024/02/14 07:59:48;;;;;;;0.30;0.20;;;9.80;99.90;;;;;;5098315;28;20680;-79
2024/02/14 08:02:14;;;;;;;0.40;0.30;;;10.10;99.90;;;;;;5101436;28;20289;-80
2024/02/14 08:04:40;;;;;;;0.40;0.30;;;10.50;99.90;;;;;;5100538;28;20712;-79
2024/02/14 08:07:05;;;;;;;0.40;0.40;;;11.10;99.90;;;;;;5093167;28;20203;-78
2024/02/14 08:09:31;;;;;;;0.63;0.63;;;11.70;99.90;;;;;;5113578;27;20209;-78
2024/02/14 08:11:57;;;;;;;0.73;0.73;;;12.40;99.90;;;;;;5102465;28;20227;-79
2024/02/14 08:14:22;;;;;;;0.40;0.30;;;13.30;99.90;;;;;;5101626;28;20398;-78
2024/02/14 08:16:48;;;;;;;0.40;0.30;;;14.10;99.90;;;;;;5090747;28;20181;-79
2024/02/14 08:19:15;;;;;;;0.40;0.30;;;14.80;99.90;;;;;;5093818;28;20207;-79
2024/02/14 08:21:41;;;;;;;0.40;0.30;;;15.60;99.90;;;;;;5101261;28;20229;-78
2024/02/14 08:24:07;;;;;;;0.40;0.30;;;16.30;99.20;;;;;;5100696;28;20438;-79
2024/02/14 08:26:32;;;;;;;0.50;0.50;;;17.00;97.30;;;;;;5101324;28;20416;-80
2024/02/14 08:28:58;;;;;;;0.30;0.20;;;17.90;95.30;;;;;;5113541;28;20200;-77
2024/02/14 08:31:24;;;;;;;0.40;0.30;;;18.60;94.00;;;;;;5096797;28;20185;-78
2024/02/14 08:33:49;;;;;;;0.53;0.50;;;19.20;93.10;;;;;;5091059;28;20229;-78
2024/02/14 08:36:16;;;;;;;0.30;0.20;;;19.80;90.70;;;;;;5092590;28;20182;-79
2024/02/14 08:38:42;;;;;;;0.40;0.30;;;20.50;88.10;;;;;;5097339;28;20198;-78
2024/02/14 08:41:08;;;;;;;0.53;0.53;;;21.10;86.10;;;;;;5093455;28;20442;-79
2024/02/14 08:43:34;;;;;;;1.23;1.23;;;21.60;81.70;;;;;;5097786;28;20452;-80
2024/02/14 08:45:59;;;;;;;0.40;0.20;;;21.90;80.50;;;;;;5100687;28;20184;-77
2024/02/14 08:48:27;;;;;;;0.50;0.40;;;22.10;80.30;;;;;;5115906;27;20659;-79
2024/02/14 08:50:53;;;;;;;0.60;0.40;;;22.40;78.80;;;;;;5098075;28;20184;-79
2024/02/14 08:53:19;;;;;;;0.40;0.30;;;22.90;77.60;;;;;;5087363;28;20484;-78
2024/02/14 08:55:44;;;;;;;1.03;0.83;;;23.30;76.10;;;;;;5093903;28;20972;-78
2024/02/14 08:58:10;;;;;;;0.40;0.30;;;23.60;75.00;;;;;;5092127;28;20290;-78
2024/02/14 09:00:36;;;;;;;0.40;0.20;;;23.80;72.10;;;;;;5101088;28;20180;-77
2024/02/14 09:03:05;;;;;;;0.40;0.20;;;24.00;71.80;;;;;;5102867;28;20206;-80
2024/02/14 09:05:31;;;;;;;0.80;0.73;;;24.20;71.20;;;;;;5105901;28;20401;-80
2024/02/14 09:07:57;;;;;;;0.40;0.20;;;24.40;70.90;;;;;;5121585;27;20959;-78
2024/02/14 09:10:23;;;;;;;0.40;0.20;;;24.50;68.70;;;;;;5101355;28;20495;-77
2024/02/14 09:12:49;;;;;;;0.30;0.30;;;24.50;67.60;;;;;;5092381;28;20452;-82
2024/02/14 09:15:15;;;;;;;0.37;0.33;;;24.30;67.50;;;;;;5095606;28;20196;-79
2024/02/14 09:17:41;;;;;;;0.40;0.30;;;23.90;66.50;;;;;;5093057;28;20207;-78
2024/02/14 09:20:09;;;;;;;0.40;0.20;;;23.50;67.60;;;;;;5100756;28;20456;-78
2024/02/14 09:22:38;;;;;;;0.30;0.20;;;23.30;67.00;;;;;;5103237;28;21050;-80
2024/02/14 09:25:04;;;;;;;0.40;0.20;;;23.10;67.70;;;;;;5100138;28;20829;-77
2024/02/14 09:27:31;;;;;;;0.30;0.20;;;23.00;66.80;;;;;;5098868;28;20495;-78
2024/02/14 09:29:56;;;;;;;0.30;0.20;;;23.00;67.50;;;;;;5098117;28;20425;-78
2024/02/14 09:32:22;;;;;;;0.50;0.43;;;23.00;67.00;;;;;;5098334;28;20538;-80
2024/02/14 09:34:48;;;;;;;0.43;0.43;;;22.90;66.40;;;;;;5099647;28;20568;-78
2024/02/14 09:37:13;;;;;;;0.30;0.20;;;22.80;66.10;;;;;;5100790;28;20271;-82
2024/02/14 09:39:39;;;;;;;4.37;2.20;;;22.70;66.30;;;;;;5096484;28;20541;-79
2024/02/14 09:42:12;;;;;;;1.00;1.00;;;22.70;66.80;;;;;;5098402;28;20296;-80
2024/02/14 09:44:40;;;;;;;0.30;0.20;;;22.70;66.00;;;;;;5098177;28;20728;-78
2024/02/14 09:47:09;;;;;;;0.40;0.20;;;22.70;65.50;;;;;;5091921;28;20420;-77
2024/02/14 09:49:39;;;;;;;0.30;0.30;;;22.60;66.50;;;;;;5090361;28;21142;-78
2024/02/14 09:52:06;;;;;;;0.40;0.40;;;22.40;67.10;;;;;;5093481;28;20993;-78
2024/02/14 09:54:36;;;;;;;0.50;0.50;;;22.30;66.80;;;;;;5122212;27;20471;-80
2024/02/14 09:57:02;;;;;;;6.90;1.57;;;22.40;66.50;;;;;;5101608;28;20440;-77
2024/02/14 09:59:29;;;;;;;0.30;0.30;;;22.30;66.20;;;;;;5104775;28;20940;-79
2024/02/14 10:01:55;;;;;;;0.30;0.20;;;22.20;66.50;;;;;;5118479;27;20540;-81
2024/02/14 10:04:22;;;;;;;0.30;0.20;;;22.10;66.00;;;;;;5103117;28;20954;-79
2024/02/14 10:06:49;;;;;;;0.40;0.20;;;22.10;66.30;;;;;;5104422;27;20180;-77
2024/02/14 10:09:21;;;;;;;0.30;0.20;;;22.10;66.50;;;;;;5102786;28;20463;-80
2024/02/14 10:11:47;;;;;;;1.33;0.60;;;22.00;65.90;;;;;;5103852;28;20646;-80
2024/02/14 10:14:13;;;;;;;0.40;0.40;;;21.90;66.50;;;;;;5103563;28;20483;-79
2024/02/14 10:16:39;;;;;;;0.93;0.93;;;21.80;67.00;;;;;;5103284;28;20228;-79
2024/02/14 10:19:07;;;;;;;0.40;0.20;;;21.60;66.40;;;;;;5099875;28;20195;-79
2024/02/14 10:21:33;;;;;;;0.30;0.20;;;21.30;67.40;;;;;;5100644;28;20501;-77
2024/02/14 10:24:02;;;;;;;0.50;0.50;;;21.00;68.60;;;;;;5093674;28;20532;-77
2024/02/14 10:26:31;;;;;;;0.30;0.20;;;20.60;68.50;;;;;;5121576;27;20629;-78
2024/02/14 10:28:58;;;;;;;0.40;0.40;;;20.30;69.70;;;;;;5097604;28;20447;-79
2024/02/14 10:31:27;;;;;;;1.57;1.43;;;20.00;69.10;;;;;;5092796;28;20606;-77
2024/02/14 10:33:58;;;;;;;0.47;0.47;;;19.50;69.10;;;;;;5098146;28;20613;-77
2024/02/14 10:36:25;;;;;;;0.30;0.20;;;19.20;69.50;;;;;;5101816;28;20416;-77
2024/02/14 10:38:51;;;;;;;0.30;0.20;;;19.00;70.80;;;;;;5098179;28;20577;-77
2024/02/14 10:41:17;;;;;;;0.37;0.20;;;18.70;71.00;;;;;;5092667;28;20602;-79
2024/02/14 10:43:45;;;;;;;2.37;2.27;;;18.40;72.40;;;;;;5099164;28;20676;-79
2024/02/14 10:46:21;;;;;;;3.60;3.10;;;18.10;72.10;;;;;;5097584;28;20879;-79
2024/02/14 10:48:49;;;;;;;0.30;0.20;;;17.80;72.80;;;;;;5103506;27;20467;-79
2024/02/14 10:51:16;;;;;;;0.30;0.20;;;17.60;72.50;;;;;;5095649;27;20763;-77
2024/02/14 10:53:45;;;;;;;0.30;0.20;;;17.40;73.30;;;;;;5095044;27;20923;-79
2024/02/14 10:56:17;;;;;;;0.40;0.30;;;17.40;72.50;;;;;;5097184;28;20490;-79
2024/02/14 10:58:45;;;;;;;0.30;0.20;;;17.10;74.00;;;;;;5091914;28;20445;-80
2024/02/14 11:01:12;;;;;;;0.30;0.27;;;17.00;73.60;;;;;;5083199;28;20807;-77
2024/02/14 11:03:38;;;;;;;0.30;0.20;;;16.80;73.50;;;;;;5091063;28;20961;-78
2024/02/14 11:06:03;;;;;;;0.40;0.40;;;16.70;74.00;;;;;;5084743;28;20905;-77
2024/02/14 11:08:32;;;;;;;0.40;0.40;;;16.70;75.00;;;;;;5094755;28;20660;-77
2024/02/14 11:10:59;;;;;;;0.47;0.47;;;16.70;75.00;;;;;;5095194;28;20233;-79
2024/02/14 11:13:30;;;;;;;0.30;0.20;;;16.60;75.30;;;;;;5082642;28;20641;-76
2024/02/14 11:16:00;;;;;;;0.30;0.20;;;16.50;76.20;;;;;;5092052;28;20416;-79
2024/02/14 11:18:29;;;;;;;2.57;1.47;;;16.50;76.30;;;;;;5113106;27;20530;-76
2024/02/14 11:20:57;;;;;;;0.40;0.30;;;16.40;76.30;;;;;;5116549;27;20423;-77
2024/02/14 11:23:23;;;;;;;0.50;0.50;;;16.40;75.60;;;;;;5100954;28;20475;-79
2024/02/14 11:25:49;;;;;;;0.30;0.30;;;16.30;74.70;;;;;;5102766;28;20427;-78
2024/02/14 11:28:19;;;;;;;0.30;0.20;;;16.30;75.60;;;;;;5126646;27;20430;-81
2024/02/14 11:30:45;;;;;;;0.87;0.87;;;16.30;76.30;;;;;;5101236;28;20485;-79
2024/02/14 11:33:23;;;;;;;0.30;0.20;;;16.30;76.50;;;;;;5101223;28;20463;-77
2024/02/14 11:35:55;;;;;;;0.30;0.20;;;16.20;76.90;;;;;;5093222;28;20971;-79
2024/02/14 11:38:23;;;;;;;1.57;1.47;;;16.20;76.00;;;;;;5101657;28;20444;-79
2024/02/14 11:40:49;;;;;;;0.40;0.40;;;16.20;75.60;;;;;;5100061;28;20446;-79
2024/02/14 11:43:17;;;;;;;0.30;0.23;;;16.10;78.00;;;;;;5094766;28;20455;-79
2024/02/14 11:45:45;;;;;;;0.30;0.30;;;16.00;76.00;;;;;;5111853;27;20436;-77
2024/02/14 11:48:14;;;;;;;0.30;0.20;;;16.00;76.10;;;;;;5093321;28;20450;-79
2024/02/14 11:50:41;;;;;;;0.30;0.20;;;16.00;76.00;;;;;;5094763;28;20515;-77
2024/02/14 11:53:10;;;;;;;0.30;0.20;;;16.00;76.20;;;;;;5090049;28;20452;-79
2024/02/14 11:55:40;;;;;;;1.80;1.70;;;15.90;76.60;;;;;;5090079;28;20879;-80
2024/02/14 11:58:13;;;;;;;1.40;1.03;;;15.90;76.60;;;;;;5092844;28;20444;-79
2024/02/14 12:00:40;;;;;;;0.93;0.83;;;16.00;76.60;;;;;;5091151;28;20456;-77
2024/02/14 12:03:23;;;;;;;0.30;0.20;;;16.00;75.70;;;;;;5093265;28;20639;-79
2024/02/14 12:05:52;;;;;;;0.30;0.20;;;16.00;75.90;;;;;;5090788;28;20445;-79
2024/02/14 12:08:18;;;;;;;0.30;0.20;;;15.90;76.10;;;;;;5067459;28;20453;-79
2024/02/14 12:10:49;;;;;;;0.87;0.87;;;15.80;75.80;;;;;;5091598;28;20471;-79
2024/02/14 12:13:17;;;;;;;0.40;0.40;;;15.80;77.10;;;;;;5083039;28;20474;-78
2024/02/14 12:15:51;;;;;;;0.50;0.43;;;15.80;77.20;;;;;;5092208;28;20419;-77
2024/02/14 12:18:18;;;;;;;0.30;0.20;;;15.80;76.30;;;;;;5084022;28;20452;-77
2024/02/14 12:20:45;;;;;;;0.30;0.20;;;15.80;75.90;;;;;;5089048;28;20428;-78
2024/02/14 12:23:17;;;;;;;0.30;0.20;;;15.80;76.30;;;;;;5085992;28;20461;-80
2024/02/14 12:25:43;;;;;;;0.30;0.20;;;15.80;76.80;;;;;;5096642;28;20541;-77
2024/02/14 12:28:22;;;;;;;0.30;0.27;;;15.80;77.00;;;;;;5098723;28;20459;-80
2024/02/14 12:30:55;;;;;;;0.30;0.20;;;15.80;76.90;;;;;;5090670;28;20444;-77
2024/02/14 12:33:23;;;;;;;0.30;0.20;;;15.70;76.70;;;;;;5085873;28;20985;-76
2024/02/14 12:35:50;;;;;;;0.30;0.20;;;15.70;76.20;;;;;;5104748;28;20424;-76
2024/02/14 12:38:18;;;;;;;0.30;0.20;;;15.70;77.00;;;;;;5105818;28;21263;-79
2024/02/14 12:40:44;;;;;;;0.30;0.20;;;15.70;76.80;;;;;;5104179;28;20789;-79
2024/02/14 12:43:14;;;;;;;0.30;0.20;;;15.70;75.90;;;;;;5103222;28;20459;-78
2024/02/14 12:45:40;;;;;;;0.30;0.20;;;15.70;76.50;;;;;;5101098;28;20503;-77
2024/02/14 12:48:10;;;;;;;0.30;0.20;;;15.60;76.20;;;;;;5105540;28;20500;-77
2024/02/14 12:50:39;;;;;;;0.30;0.20;;;15.60;76.40;;;;;;5105526;28;20565;-78